Suederoog — ZDHC8 — position and weather

sailwx.info

Track history (hours):
 
Tides and Currents Weather Stations Pressure Air Temp Water Temp Dewpoint Dewpoint Depression Visibility Wind Speed Wind Dir Waves Ship Positions

Suederoog

Last reported at 2017-Jan-16 23:31 UTC. Time now 2017-Jan-17 00:41 UTC.
Position N 59°37' E 023°20'.

Length 161 m; draft 9.5 m.

Type: Cargo ship. MMSI: 236300000.

Date/timePositionNaut miles runAvg speedWind from/ knotsBaromVisibWave heightAir tempDewpointWater temp
2017-Jan-16 23:31N 59°37' E 023°20'1111.4
2017-Jan-16 22:33N 59°41' E 023°41'1111.1
2017-Jan-16 21:33N 59°44' E 024°02'7111.5
2017-Jan-16 15:23N 60°05' E 026°17'1011.8
2017-Jan-16 14:33N 60°14' E 026°25'1414.2
2017-Jan-16 13:33N 60°23' E 026°47'4 4.3
2017-Jan-16 12:33N 60°25' E 026°55'0 0.0
2017-Jan-16 11:33N 60°25' E 026°55'0 0.0
2017-Jan-16 10:33N 60°25' E 026°55'0 0.0
2017-Jan-16 09:33N 60°25' E 026°55'0 0.0
2017-Jan-16 08:33N 60°25' E 026°55'0 0.0
2017-Jan-16 07:33N 60°25' E 026°55'0 0.0
2017-Jan-16 06:33N 60°25' E 026°55'0 0.0
2017-Jan-16 05:33N 60°25' E 026°55'0 0.0
2017-Jan-16 04:33N 60°25' E 026°55'0 0.0
2017-Jan-16 03:33N 60°25' E 026°55'0 0.0
2017-Jan-16 02:33N 60°25' E 026°55'0 0.0
2017-Jan-16 01:33N 60°25' E 026°55'0 0.0
2017-Jan-16 00:33N 60°25' E 026°55'0 0.0
2017-Jan-15 23:33N 60°25' E 026°55'0 0.0
2017-Jan-15 22:33N 60°25' E 026°55'0 0.0
2017-Jan-15 21:33N 60°25' E 026°55'0 0.0
2017-Jan-15 20:33N 60°25' E 026°55'0 0.0
2017-Jan-15 19:33N 60°25' E 026°55'0 0.0
2017-Jan-15 18:33N 60°25' E 026°55'0 0.0
2017-Jan-15 17:33N 60°25' E 026°55'0 0.0
2017-Jan-15 16:33N 60°25' E 026°55'0 0.0
2017-Jan-15 15:33N 60°25' E 026°55'0 0.0
2017-Jan-15 14:33N 60°25' E 026°55'0 0.0
2017-Jan-15 13:33N 60°25' E 026°55'0 0.0
2017-Jan-15 12:33N 60°25' E 026°55'0 0.0
2017-Jan-15 11:33N 60°25' E 026°55'0 0.0
2017-Jan-15 10:33N 60°25' E 026°55'0 0.0
2017-Jan-15 09:33N 60°25' E 026°55'0 0.0
2017-Jan-15 08:33N 60°25' E 026°55'0 0.0
2017-Jan-15 07:33N 60°25' E 026°55'0 0.0
2017-Jan-15 06:30N 60°25' E 026°55'0 0.0
2017-Jan-15 05:33N 60°25' E 026°55'0 0.0
2017-Jan-15 04:33N 60°25' E 026°55'0 0.0
2017-Jan-15 03:33N 60°25' E 026°55'0 0.0
2017-Jan-15 02:33N 60°25' E 026°55'0 0.0
2017-Jan-15 01:33N 60°25' E 026°55'1 0.8
2017-Jan-15 00:33N 60°25' E 026°54'1515.3
2017-Jan-14 23:33N 60°16' E 026°29'8 8.5
2017-Jan-14 22:33N 60°07' E 026°29'1111.4
2017-Jan-14 21:33N 60°01' E 026°48'1110.7
2017-Jan-14 20:33N 60°01' E 027°10'1111.4
2017-Jan-14 19:33N 60°07' E 027°29'1111.0
2017-Jan-14 18:33N 60°12' E 027°50'1211.5
2017-Jan-14 17:33N 60°09' E 028°12'1211.5
2017-Jan-14 16:33N 60°03' E 028°32'1111.3
2017-Jan-14 15:33N 60°03' E 028°55'1111.1
2017-Jan-14 14:31N 60°02' E 029°18'17 8.5
2017-Jan-14 12:32N 59°57' E 029°50'1010.0
2017-Jan-14 11:33N 59°54' E 030°08'2 1.9
2017-Jan-14 10:33N 59°53' E 030°12'0 0.1
2017-Jan-14 09:33N 59°53' E 030°12'0 0.4
2017-Jan-14 08:31N 59°52' E 030°12'0 0.0
2017-Jan-14 07:31N 59°52' E 030°12'0 0.0
2017-Jan-14 06:31N 59°52' E 030°12'0 0.0
2017-Jan-14 05:31N 59°52' E 030°12'0 0.0
2017-Jan-14 04:31N 59°52' E 030°12'0 0.0
2017-Jan-14 03:31N 59°52' E 030°12'1 0.2
2017-Jan-13 23:31N 59°53' E 030°11'0 0.0
2017-Jan-13 22:31N 59°53' E 030°11'0 0.0
2017-Jan-13 21:31N 59°53' E 030°11'0 0.0
2017-Jan-13 20:31N 59°53' E 030°11'0 0.0
2017-Jan-13 19:31N 59°53' E 030°11'0 0.0
2017-Jan-13 18:31N 59°53' E 030°11'0 0.0
2017-Jan-13 17:31N 59°53' E 030°11'0 0.0
2017-Jan-13 16:31N 59°53' E 030°11'0 0.0
2017-Jan-13 15:31N 59°53' E 030°11'0 0.0
2017-Jan-13 14:31N 59°53' E 030°11'0 0.0
2017-Jan-13 13:31N 59°53' E 030°11'0 0.0
2017-Jan-13 12:32N 59°53' E 030°11'0 0.0
2017-Jan-13 11:32N 59°53' E 030°11'0 0.0
2017-Jan-13 10:32N 59°53' E 030°11'0 0.0
2017-Jan-13 09:32N 59°53' E 030°11'0 0.0
2017-Jan-13 08:29N 59°53' E 030°11'0 0.0
2017-Jan-13 07:32N 59°53' E 030°11'0 0.0
2017-Jan-13 06:32N 59°53' E 030°11'0 0.0
2017-Jan-13 05:32N 59°53' E 030°11'0 0.0
2017-Jan-13 04:32N 59°53' E 030°11'0 0.0
2017-Jan-13 03:32N 59°53' E 030°11'3 3.2
2017-Jan-13 02:33N 59°54' E 030°06'1010.3
2017-Jan-13 01:33N 59°58' E 029°47'31 9.3
2017-Jan-12 22:16N 60°02' E 028°46'1014.0
2017-Jan-12 21:33N 60°03' E 028°26'1111.3
2017-Jan-12 20:33N 60°08' E 028°06'1211.2
2017-Jan-12 19:30N 60°10' E 027°43'1211.9
2017-Jan-12 18:31N 60°04' E 027°23'1211.9
2017-Jan-12 17:32N 59°58' E 027°03'1111.1
2017-Jan-12 16:33N 59°59' E 026°41'1211.9
2017-Jan-12 15:33N 59°57' E 026°18'6314.5
2017-Jan-12 11:13N 59°42' E 024°16'811.9
2017-Jan-12 10:33N 59°39' E 024°02'1211.6
2017-Jan-12 09:33N 59°36' E 023°40'1211.6
2017-Jan-12 08:33N 59°32' E 023°18'36313.4
2017-Jan-11 05:33N 55°29' E 014°57'1212.1
2017-Jan-11 04:33N 55°23' E 014°39'1212.0
2017-Jan-11 03:33N 55°14' E 014°25'1211.8
2017-Jan-11 02:33N 55°04' E 014°12'1111.4
2017-Jan-11 01:34N 54°59' E 013°55'1211.4
2017-Jan-11 00:32N 54°55' E 013°36'5511.0
2017-Jan-10 19:33N 54°28' E 012°13'10 9.8
2017-Jan-10 18:33N 54°25' E 011°58'1110.5
2017-Jan-10 17:33N 54°27' E 011°40'1010.3
2017-Jan-10 16:33N 54°31' E 011°24'1010.0
2017-Jan-10 15:33N 54°35' E 011°08'1111.0
2017-Jan-10 14:33N 54°34' E 010°49'1211.5
2017-Jan-10 13:33N 54°32' E 010°30'49 4.9
2017-Jan-10 03:33N 54°05' E 009°19'5 4.9
2017-Jan-10 02:33N 54°00' E 009°18'7 6.8
2017-Jan-10 01:33N 53°55' E 009°11'2 2.1
2017-Jan-10 00:33N 53°53' E 009°09'1111.3
2017-Jan-09 23:33N 53°46' E 009°24'1414.0
2017-Jan-09 22:34N 53°35' E 009°38'9 9.4
2017-Jan-09 21:34N 53°33' E 009°53'1 1.2
2017-Jan-09 20:32N 53°32' E 009°55'0 0.0
2017-Jan-09 19:32N 53°32' E 009°55'0 0.0
2017-Jan-09 18:32N 53°32' E 009°55'0 0.0
2017-Jan-09 17:32N 53°32' E 009°55'0 0.0
2017-Jan-09 16:32N 53°32' E 009°55'0 0.0
2017-Jan-09 15:32N 53°32' E 009°55'0 0.0
2017-Jan-09 14:32N 53°32' E 009°55'0 0.0
2017-Jan-09 13:34N 53°32' E 009°55'1 1.2
2017-Jan-09 12:31N 53°32' E 009°57'0 0.0
2017-Jan-09 11:31N 53°32' E 009°57'0 0.0
2017-Jan-09 10:31N 53°32' E 009°57'0 0.0
2017-Jan-09 09:31N 53°32' E 009°57'0 0.0
2017-Jan-09 08:31N 53°32' E 009°57'0 0.0
2017-Jan-09 07:31N 53°32' E 009°57'0 0.0
2017-Jan-09 06:31N 53°32' E 009°57'0 0.0
2017-Jan-09 05:31N 53°32' E 009°57'0 0.0
2017-Jan-09 04:31N 53°32' E 009°57'0 0.0
2017-Jan-09 03:31N 53°32' E 009°57'0 0.0
2017-Jan-09 02:28N 53°32' E 009°57'0 0.0
2017-Jan-09 01:31N 53°32' E 009°57'0 0.0
2017-Jan-09 00:31N 53°32' E 009°57'0 0.0
2017-Jan-08 23:31N 53°32' E 009°57'0 0.0
2017-Jan-08 22:31N 53°32' E 009°57'0 0.0
2017-Jan-08 21:31N 53°32' E 009°57'0 0.0
2017-Jan-08 20:31N 53°32' E 009°57'0 0.0
2017-Jan-08 19:31N 53°32' E 009°57'0 0.0
2017-Jan-08 18:31N 53°32' E 009°57'0 0.0
2017-Jan-08 17:34N 53°32' E 009°57'7 7.3
2017-Jan-08 16:33N 53°34' E 009°45'1111.3
2017-Jan-08 15:33N 53°41' E 009°30'1313.4
2017-Jan-08 14:34N 53°52' E 009°17'5 5.5
2017-Jan-08 13:34N 53°54' E 009°09'2 1.9
2017-Jan-08 12:34N 53°55' E 009°11'7 6.6
2017-Jan-08 11:34N 54°00' E 009°18'8 6.7
2017-Jan-08 10:23N 54°08' E 009°20'20 5.1
2017-Jan-08 06:32N 54°21' E 009°46'34 5.5
2017-Jan-08 00:22N 54°35' E 010°39'1112.5
2017-Jan-07 23:31N 54°36' E 010°58'1212.1
2017-Jan-07 22:34N 54°34' E 011°17'1212.3
2017-Jan-07 21:34N 54°29' E 011°36'1212.1
2017-Jan-07 20:33N 54°26' E 011°57'7314.4
2017-Jan-07 15:31N 55°01' E 013°47'1515.5
2017-Jan-07 14:33N 55°09' E 014°10'1211.5
2017-Jan-07 13:33N 55°18' E 014°22'1111.2
2017-Jan-07 12:33N 55°27' E 014°34'1111.0
2017-Jan-07 11:34N 55°32' E 014°51'1110.7
2017-Jan-07 10:31N 55°38' E 015°08'  
Track history (hours):
 
Tides and Currents Weather Stations Pressure Air Temp Water Temp Dewpoint Dewpoint Depression Visibility Wind Speed Wind Dir Waves Ship Positions

Suederoog

Last reported at 2017-Jan-16 23:31 UTC. Time now 2017-Jan-17 00:41 UTC.
Position N 59°37' E 023°20'.

Length 161 m; draft 9.5 m.

Type: Cargo ship. MMSI: 236300000.

Date/timePositionNaut miles runAvg speedWind from/ knotsBaromVisibWave heightAir tempDewpointWater temp
2017-Jan-16 23:31N 59°37' E 023°20'1111.4
2017-Jan-16 22:33N 59°41' E 023°41'1111.1
2017-Jan-16 21:33N 59°44' E 024°02'7111.5
2017-Jan-16 15:23N 60°05' E 026°17'1011.8
2017-Jan-16 14:33N 60°14' E 026°25'1414.2
2017-Jan-16 13:33N 60°23' E 026°47'4 4.3
2017-Jan-16 12:33N 60°25' E 026°55'0 0.0
2017-Jan-16 11:33N 60°25' E 026°55'0 0.0
2017-Jan-16 10:33N 60°25' E 026°55'0 0.0
2017-Jan-16 09:33N 60°25' E 026°55'0 0.0
2017-Jan-16 08:33N 60°25' E 026°55'0 0.0
2017-Jan-16 07:33N 60°25' E 026°55'0 0.0
2017-Jan-16 06:33N 60°25' E 026°55'0 0.0
2017-Jan-16 05:33N 60°25' E 026°55'0 0.0
2017-Jan-16 04:33N 60°25' E 026°55'0 0.0
2017-Jan-16 03:33N 60°25' E 026°55'0 0.0
2017-Jan-16 02:33N 60°25' E 026°55'0 0.0
2017-Jan-16 01:33N 60°25' E 026°55'0 0.0
2017-Jan-16 00:33N 60°25' E 026°55'0 0.0
2017-Jan-15 23:33N 60°25' E 026°55'0 0.0
2017-Jan-15 22:33N 60°25' E 026°55'0 0.0
2017-Jan-15 21:33N 60°25' E 026°55'0 0.0
2017-Jan-15 20:33N 60°25' E 026°55'0 0.0
2017-Jan-15 19:33N 60°25' E 026°55'0 0.0
2017-Jan-15 18:33N 60°25' E 026°55'0 0.0
2017-Jan-15 17:33N 60°25' E 026°55'0 0.0
2017-Jan-15 16:33N 60°25' E 026°55'0 0.0
2017-Jan-15 15:33N 60°25' E 026°55'0 0.0
2017-Jan-15 14:33N 60°25' E 026°55'0 0.0
2017-Jan-15 13:33N 60°25' E 026°55'0 0.0
2017-Jan-15 12:33N 60°25' E 026°55'0 0.0
2017-Jan-15 11:33N 60°25' E 026°55'0 0.0
2017-Jan-15 10:33N 60°25' E 026°55'0 0.0
2017-Jan-15 09:33N 60°25' E 026°55'0 0.0
2017-Jan-15 08:33N 60°25' E 026°55'0 0.0
2017-Jan-15 07:33N 60°25' E 026°55'0 0.0
2017-Jan-15 06:30N 60°25' E 026°55'0 0.0
2017-Jan-15 05:33N 60°25' E 026°55'0 0.0
2017-Jan-15 04:33N 60°25' E 026°55'0 0.0
2017-Jan-15 03:33N 60°25' E 026°55'0 0.0
2017-Jan-15 02:33N 60°25' E 026°55'0 0.0
2017-Jan-15 01:33N 60°25' E 026°55'1 0.8
2017-Jan-15 00:33N 60°25' E 026°54'1515.3
2017-Jan-14 23:33N 60°16' E 026°29'8 8.5
2017-Jan-14 22:33N 60°07' E 026°29'1111.4
2017-Jan-14 21:33N 60°01' E 026°48'1110.7
2017-Jan-14 20:33N 60°01' E 027°10'1111.4
2017-Jan-14 19:33N 60°07' E 027°29'1111.0
2017-Jan-14 18:33N 60°12' E 027°50'1211.5
2017-Jan-14 17:33N 60°09' E 028°12'1211.5
2017-Jan-14 16:33N 60°03' E 028°32'1111.3
2017-Jan-14 15:33N 60°03' E 028°55'1111.1
2017-Jan-14 14:31N 60°02' E 029°18'17 8.5
2017-Jan-14 12:32N 59°57' E 029°50'1010.0
2017-Jan-14 11:33N 59°54' E 030°08'2 1.9
2017-Jan-14 10:33N 59°53' E 030°12'0 0.1
2017-Jan-14 09:33N 59°53' E 030°12'0 0.4
2017-Jan-14 08:31N 59°52' E 030°12'0 0.0
2017-Jan-14 07:31N 59°52' E 030°12'0 0.0
2017-Jan-14 06:31N 59°52' E 030°12'0 0.0
2017-Jan-14 05:31N 59°52' E 030°12'0 0.0
2017-Jan-14 04:31N 59°52' E 030°12'0 0.0
2017-Jan-14 03:31N 59°52' E 030°12'1 0.2
2017-Jan-13 23:31N 59°53' E 030°11'0 0.0
2017-Jan-13 22:31N 59°53' E 030°11'0 0.0
2017-Jan-13 21:31N 59°53' E 030°11'0 0.0
2017-Jan-13 20:31N 59°53' E 030°11'0 0.0
2017-Jan-13 19:31N 59°53' E 030°11'0 0.0
2017-Jan-13 18:31N 59°53' E 030°11'0 0.0
2017-Jan-13 17:31N 59°53' E 030°11'0 0.0
2017-Jan-13 16:31N 59°53' E 030°11'0 0.0
2017-Jan-13 15:31N 59°53' E 030°11'0 0.0
2017-Jan-13 14:31N 59°53' E 030°11'0 0.0
2017-Jan-13 13:31N 59°53' E 030°11'0 0.0
2017-Jan-13 12:32N 59°53' E 030°11'0 0.0
2017-Jan-13 11:32N 59°53' E 030°11'0 0.0
2017-Jan-13 10:32N 59°53' E 030°11'0 0.0
2017-Jan-13 09:32N 59°53' E 030°11'0 0.0
2017-Jan-13 08:29N 59°53' E 030°11'0 0.0
2017-Jan-13 07:32N 59°53' E 030°11'0 0.0
2017-Jan-13 06:32N 59°53' E 030°11'0 0.0
2017-Jan-13 05:32N 59°53' E 030°11'0 0.0
2017-Jan-13 04:32N 59°53' E 030°11'0 0.0
2017-Jan-13 03:32N 59°53' E 030°11'3 3.2
2017-Jan-13 02:33N 59°54' E 030°06'1010.3
2017-Jan-13 01:33N 59°58' E 029°47'31 9.3
2017-Jan-12 22:16N 60°02' E 028°46'1014.0
2017-Jan-12 21:33N 60°03' E 028°26'1111.3
2017-Jan-12 20:33N 60°08' E 028°06'1211.2
2017-Jan-12 19:30N 60°10' E 027°43'1211.9
2017-Jan-12 18:31N 60°04' E 027°23'1211.9
2017-Jan-12 17:32N 59°58' E 027°03'1111.1
2017-Jan-12 16:33N 59°59' E 026°41'1211.9
2017-Jan-12 15:33N 59°57' E 026°18'6314.5
2017-Jan-12 11:13N 59°42' E 024°16'811.9
2017-Jan-12 10:33N 59°39' E 024°02'1211.6
2017-Jan-12 09:33N 59°36' E 023°40'1211.6
2017-Jan-12 08:33N 59°32' E 023°18'36313.4
2017-Jan-11 05:33N 55°29' E 014°57'1212.1
2017-Jan-11 04:33N 55°23' E 014°39'1212.0
2017-Jan-11 03:33N 55°14' E 014°25'1211.8
2017-Jan-11 02:33N 55°04' E 014°12'1111.4
2017-Jan-11 01:34N 54°59' E 013°55'1211.4
2017-Jan-11 00:32N 54°55' E 013°36'5511.0
2017-Jan-10 19:33N 54°28' E 012°13'10 9.8
2017-Jan-10 18:33N 54°25' E 011°58'1110.5
2017-Jan-10 17:33N 54°27' E 011°40'1010.3
2017-Jan-10 16:33N 54°31' E 011°24'1010.0
2017-Jan-10 15:33N 54°35' E 011°08'1111.0
2017-Jan-10 14:33N 54°34' E 010°49'1211.5
2017-Jan-10 13:33N 54°32' E 010°30'49 4.9
2017-Jan-10 03:33N 54°05' E 009°19'5 4.9
2017-Jan-10 02:33N 54°00' E 009°18'7 6.8
2017-Jan-10 01:33N 53°55' E 009°11'2 2.1
2017-Jan-10 00:33N 53°53' E 009°09'1111.3
2017-Jan-09 23:33N 53°46' E 009°24'1414.0
2017-Jan-09 22:34N 53°35' E 009°38'9 9.4
2017-Jan-09 21:34N 53°33' E 009°53'1 1.2
2017-Jan-09 20:32N 53°32' E 009°55'0 0.0
2017-Jan-09 19:32N 53°32' E 009°55'0 0.0
2017-Jan-09 18:32N 53°32' E 009°55'0 0.0
2017-Jan-09 17:32N 53°32' E 009°55'0 0.0
2017-Jan-09 16:32N 53°32' E 009°55'0 0.0
2017-Jan-09 15:32N 53°32' E 009°55'0 0.0
2017-Jan-09 14:32N 53°32' E 009°55'0 0.0
2017-Jan-09 13:34N 53°32' E 009°55'1 1.2
2017-Jan-09 12:31N 53°32' E 009°57'0 0.0
2017-Jan-09 11:31N 53°32' E 009°57'0 0.0
2017-Jan-09 10:31N 53°32' E 009°57'0 0.0
2017-Jan-09 09:31N 53°32' E 009°57'0 0.0
2017-Jan-09 08:31N 53°32' E 009°57'0 0.0
2017-Jan-09 07:31N 53°32' E 009°57'0 0.0
2017-Jan-09 06:31N 53°32' E 009°57'0 0.0
2017-Jan-09 05:31N 53°32' E 009°57'0 0.0
2017-Jan-09 04:31N 53°32' E 009°57'0 0.0
2017-Jan-09 03:31N 53°32' E 009°57'0 0.0
2017-Jan-09 02:28N 53°32' E 009°57'0 0.0
2017-Jan-09 01:31N 53°32' E 009°57'0 0.0
2017-Jan-09 00:31N 53°32' E 009°57'0 0.0
2017-Jan-08 23:31N 53°32' E 009°57'0 0.0
2017-Jan-08 22:31N 53°32' E 009°57'0 0.0
2017-Jan-08 21:31N 53°32' E 009°57'0 0.0
2017-Jan-08 20:31N 53°32' E 009°57'0 0.0
2017-Jan-08 19:31N 53°32' E 009°57'0 0.0
2017-Jan-08 18:31N 53°32' E 009°57'0 0.0
2017-Jan-08 17:34N 53°32' E 009°57'7 7.3
2017-Jan-08 16:33N 53°34' E 009°45'1111.3
2017-Jan-08 15:33N 53°41' E 009°30'1313.4
2017-Jan-08 14:34N 53°52' E 009°17'5 5.5
2017-Jan-08 13:34N 53°54' E 009°09'2 1.9
2017-Jan-08 12:34N 53°55' E 009°11'7 6.6
2017-Jan-08 11:34N 54°00' E 009°18'8 6.7
2017-Jan-08 10:23N 54°08' E 009°20'20 5.1
2017-Jan-08 06:32N 54°21' E 009°46'34 5.5
2017-Jan-08 00:22N 54°35' E 010°39'1112.5
2017-Jan-07 23:31N 54°36' E 010°58'1212.1
2017-Jan-07 22:34N 54°34' E 011°17'1212.3
2017-Jan-07 21:34N 54°29' E 011°36'1212.1
2017-Jan-07 20:33N 54°26' E 011°57'7314.4
2017-Jan-07 15:31N 55°01' E 013°47'1515.5
2017-Jan-07 14:33N 55°09' E 014°10'1211.5
2017-Jan-07 13:33N 55°18' E 014°22'1111.2
2017-Jan-07 12:33N 55°27' E 014°34'1111.0
2017-Jan-07 11:34N 55°32' E 014°51'1110.7
2017-Jan-07 10:31N 55°38' E 015°08'  

Dump ship's entire track history